createdAt,value
2022-09-13T00:04:49.116Z,88.32
2022-09-13T00:09:52.089Z,88.53
2022-09-13T00:14:54.755Z,88.81
2022-09-13T00:19:57.566Z,88.78
2022-09-13T00:25:00.471Z,88.73
2022-09-13T00:30:07.991Z,88.90
2022-09-13T00:35:12.507Z,89.31
2022-09-13T00:40:15.608Z,89.51
2022-09-13T00:45:19.140Z,89.95
2022-09-13T00:50:31.246Z,90.23
2022-09-13T00:55:58.538Z,90.63
2022-09-13T01:01:03.624Z,90.77
2022-09-13T01:06:11.581Z,91.07
2022-09-13T01:11:26.431Z,91.46
2022-09-13T01:16:29.209Z,91.28
2022-09-13T01:21:57.729Z,91.45
2022-09-13T01:27:18.624Z,91.26
2022-09-13T01:32:53.427Z,91.30
2022-09-13T01:38:17.399Z,91.57
2022-09-13T01:43:58.171Z,91.74
2022-09-13T01:49:31.469Z,91.67
2022-09-13T01:55:02.239Z,91.38
2022-09-13T02:00:08.912Z,91.93
2022-09-13T02:05:24.799Z,91.84
2022-09-13T02:10:35.000Z,91.86
2022-09-13T02:15:44.201Z,91.98
2022-09-13T02:20:51.837Z,91.84
2022-09-13T02:25:57.425Z,91.69
2022-09-13T02:31:02.912Z,91.46
2022-09-13T02:36:15.085Z,91.33
2022-09-13T02:41:28.340Z,91.32
2022-09-13T02:46:42.394Z,91.25
2022-09-13T02:52:08.158Z,91.06
2022-09-13T02:57:26.288Z,91.23
2022-09-13T03:02:33.518Z,91.26
2022-09-13T03:07:36.317Z,90.66
2022-09-13T03:13:00.567Z,90.88
2022-09-13T03:18:20.998Z,90.64
2022-09-13T03:23:32.920Z,90.25
2022-09-13T03:29:01.594Z,90.23
2022-09-13T03:34:18.367Z,90.28
2022-09-13T03:39:39.252Z,90.61
2022-09-13T03:44:45.938Z,90.64
2022-09-13T03:49:50.904Z,91.00
2022-09-13T03:54:54.411Z,91.23
2022-09-13T03:59:57.659Z,91.05
2022-09-13T04:05:00.355Z,90.40
2022-09-13T04:10:03.105Z,90.18
2022-09-13T04:15:06.955Z,90.24
2022-09-13T04:20:09.772Z,90.04
2022-09-13T04:25:12.460Z,89.81
2022-09-13T04:30:15.596Z,90.02
2022-09-13T04:35:19.822Z,89.79
2022-09-13T04:40:23.931Z,89.93
2022-09-13T04:45:26.899Z,89.86
2022-09-13T04:50:31.109Z,90.24
2022-09-13T04:55:33.832Z,90.18
2022-09-13T05:00:37.525Z,89.77
2022-09-13T05:05:40.499Z,90.04
2022-09-13T05:10:43.285Z,89.60
2022-09-13T05:15:47.154Z,89.46
2022-09-13T05:20:49.883Z,89.58
2022-09-13T05:25:54.940Z,89.40
2022-09-13T05:31:10.603Z,89.23
2022-09-13T05:36:13.404Z,89.40
2022-09-13T05:41:17.334Z,89.58
2022-09-13T05:46:21.427Z,90.63
2022-09-13T05:51:25.458Z,91.09
2022-09-13T05:56:30.087Z,82.31
2022-09-13T06:01:33.071Z,71.50
2022-09-13T06:06:38.021Z,62.43
2022-09-13T06:11:41.605Z,56.43
2022-09-13T06:16:44.902Z,51.33
2022-09-13T06:21:47.740Z,47.62
2022-09-13T06:26:55.496Z,46.06
2022-09-13T06:31:59.167Z,48.30
2022-09-13T06:37:02.017Z,50.52
2022-09-13T06:42:05.119Z,52.19
2022-09-13T06:47:08.348Z,53.76
2022-09-13T06:52:11.484Z,55.17
2022-09-13T06:57:17.409Z,56.58
2022-09-13T07:02:20.352Z,57.48
2022-09-13T07:07:25.938Z,57.40
2022-09-13T07:12:33.680Z,58.48
2022-09-13T07:17:36.994Z,58.28
2022-09-13T07:22:40.483Z,57.79
2022-09-13T07:27:43.913Z,56.50
2022-09-13T07:32:46.912Z,54.78
2022-09-13T07:37:52.381Z,54.38
2022-09-13T07:42:55.363Z,53.74
2022-09-13T07:47:58.250Z,50.61
2022-09-13T07:53:01.265Z,49.22
2022-09-13T07:58:04.010Z,49.66
2022-09-13T08:03:08.952Z,48.41
2022-09-13T08:08:12.575Z,47.41
2022-09-13T08:13:18.482Z,47.20
2022-09-13T08:18:21.477Z,46.86
2022-09-13T08:23:25.426Z,46.67
2022-09-13T08:28:28.653Z,46.88
2022-09-13T08:33:32.255Z,47.82
2022-09-13T08:38:35.084Z,48.47
2022-09-13T08:44:19.430Z,48.94
2022-09-13T08:49:30.883Z,49.83
2022-09-13T08:54:34.377Z,50.01
2022-09-13T08:59:59.144Z,50.08
2022-09-13T09:05:14.982Z,51.09
2022-09-13T09:10:24.133Z,51.32
2022-09-13T09:15:37.181Z,51.57
2022-09-13T09:20:41.687Z,52.42
2022-09-13T09:25:46.110Z,52.81
2022-09-13T09:31:09.127Z,53.19
2022-09-13T09:36:18.630Z,52.69
2022-09-13T09:41:35.265Z,53.10
2022-09-13T09:46:42.727Z,53.50
2022-09-13T09:51:47.780Z,54.09
2022-09-13T09:56:55.691Z,53.80
2022-09-13T10:02:10.749Z,53.98
2022-09-13T10:07:27.279Z,54.00
2022-09-13T10:12:37.695Z,52.99
2022-09-13T10:17:40.460Z,52.52
2022-09-13T10:22:44.775Z,53.15
2022-09-13T10:27:51.762Z,53.66
2022-09-13T10:32:56.872Z,53.79
2022-09-13T10:37:59.827Z,53.75
2022-09-13T10:43:08.098Z,54.14
2022-09-13T10:48:14.961Z,54.35
2022-09-13T10:53:34.120Z,53.94
2022-09-13T10:58:40.840Z,53.93
2022-09-13T11:04:17.027Z,54.29
2022-09-13T11:09:28.482Z,54.70
2022-09-13T11:14:50.134Z,54.69
2022-09-13T11:20:21.022Z,54.89
2022-09-13T11:25:37.886Z,55.69
2022-09-13T11:30:55.935Z,56.50
2022-09-13T11:36:21.804Z,57.22
2022-09-13T11:41:41.098Z,57.54
2022-09-13T11:46:57.006Z,57.46
2022-09-13T11:52:20.924Z,57.40
2022-09-13T11:57:32.830Z,57.59
2022-09-13T12:02:58.011Z,58.22
2022-09-13T12:08:21.944Z,58.56
2022-09-13T12:13:29.209Z,58.65
2022-09-13T12:18:38.103Z,59.49
2022-09-13T12:23:55.838Z,59.78
2022-09-13T12:29:08.270Z,59.99
2022-09-13T12:34:26.384Z,60.01
2022-09-13T12:40:09.290Z,59.68
2022-09-13T12:46:04.887Z,59.12
2022-09-13T12:51:34.113Z,59.12
2022-09-13T12:56:42.843Z,59.51
2022-09-13T13:01:49.957Z,59.12
2022-09-13T13:07:20.869Z,59.09
2022-09-13T13:12:34.749Z,59.30
2022-09-13T13:17:42.854Z,58.69
2022-09-13T13:22:45.902Z,58.75
2022-09-13T13:27:52.093Z,58.65
2022-09-13T13:33:18.952Z,58.44
2022-09-13T13:38:46.141Z,59.04
2022-09-13T13:43:49.722Z,58.58
2022-09-13T13:48:53.987Z,58.55
2022-09-13T13:54:25.071Z,58.56
2022-09-13T13:59:33.005Z,58.36
2022-09-13T14:04:54.405Z,58.92
2022-09-13T14:10:18.169Z,59.92
2022-09-13T14:15:29.852Z,60.31
2022-09-13T14:20:32.667Z,61.06
2022-09-13T14:25:36.096Z,61.50
2022-09-13T14:30:39.419Z,61.82
2022-09-13T14:35:42.242Z,62.08
2022-09-13T14:40:49.860Z,62.47
2022-09-13T14:46:21.863Z,63.15
2022-09-13T14:51:30.684Z,63.70
2022-09-13T14:56:41.941Z,64.17
2022-09-13T15:01:44.893Z,64.50
2022-09-13T15:07:05.885Z,65.11
2022-09-13T15:12:24.351Z,65.35
2022-09-13T15:17:27.164Z,65.71
2022-09-13T15:22:33.353Z,66.12
2022-09-13T15:27:47.409Z,66.46
2022-09-13T15:33:03.535Z,66.94
2022-09-13T15:38:15.845Z,67.62
2022-09-13T15:43:18.753Z,68.20
2022-09-13T15:48:35.204Z,68.59
2022-09-13T15:53:40.253Z,68.92
2022-09-13T15:58:45.193Z,69.19
2022-09-13T16:03:48.004Z,69.51
2022-09-13T16:08:50.860Z,70.09
2022-09-13T16:13:53.638Z,70.34
2022-09-13T16:18:56.577Z,70.46
2022-09-13T16:23:59.404Z,70.71
2022-09-13T16:29:02.541Z,71.31
2022-09-13T16:34:06.005Z,72.00
2022-09-13T16:39:09.330Z,72.47
2022-09-13T16:44:14.237Z,72.84
2022-09-13T16:49:17.660Z,73.66
2022-09-13T16:54:20.491Z,73.77
2022-09-13T16:59:24.131Z,74.19
2022-09-13T17:04:26.918Z,74.39
2022-09-13T17:09:30.965Z,74.76
2022-09-13T17:14:33.989Z,74.98
2022-09-13T17:19:36.917Z,75.13
2022-09-13T17:24:40.588Z,75.39
2022-09-13T17:29:43.827Z,75.48
2022-09-13T17:34:47.022Z,75.62
2022-09-13T17:39:49.874Z,75.57
2022-09-13T17:44:52.743Z,75.87
2022-09-13T17:49:56.180Z,76.05
2022-09-13T17:54:58.961Z,76.18
2022-09-13T18:00:06.775Z,76.40
2022-09-13T18:05:13.495Z,76.56
2022-09-13T18:10:45.241Z,76.78
2022-09-13T18:15:40.706Z,76.97
2022-09-13T18:20:47.189Z,77.23
2022-09-13T18:26:10.068Z,77.31
2022-09-13T18:31:16.966Z,77.76
2022-09-13T18:36:20.644Z,77.99
2022-09-13T18:41:29.747Z,78.09
2022-09-13T18:46:34.451Z,78.39
2022-09-13T18:51:40.333Z,78.52
2022-09-13T18:56:44.478Z,79.00
2022-09-13T19:01:49.017Z,79.39
2022-09-13T19:06:57.896Z,79.45
2022-09-13T19:12:01.321Z,79.69
2022-09-13T19:17:04.795Z,79.88
2022-09-13T19:22:07.612Z,80.05
2022-09-13T19:27:10.467Z,80.55
2022-09-13T19:32:13.246Z,80.99
2022-09-13T19:37:16.141Z,81.26
2022-09-13T19:42:19.041Z,81.51
2022-09-13T19:48:12.909Z,81.61
2022-09-13T19:52:45.832Z,81.91
2022-09-13T19:57:48.610Z,82.14
2022-09-13T20:02:51.384Z,82.68
2022-09-13T20:07:55.522Z,83.05
2022-09-13T20:12:59.221Z,83.23
2022-09-13T20:18:02.029Z,83.44
2022-09-13T20:23:04.864Z,83.94
2022-09-13T20:28:09.230Z,84.35
2022-09-13T20:33:12.027Z,84.33
2022-09-13T20:38:14.845Z,84.61
2022-09-13T20:43:17.570Z,84.55
2022-09-13T20:48:20.350Z,84.51
2022-09-13T20:53:23.101Z,84.70
2022-09-13T20:58:25.931Z,85.08
2022-09-13T21:03:29.572Z,85.50
2022-09-13T21:08:41.695Z,85.89
2022-09-13T21:13:54.053Z,86.40
2022-09-13T21:18:57.476Z,86.80
2022-09-13T21:24:01.281Z,87.04
2022-09-13T21:29:04.159Z,87.52
2022-09-13T21:34:14.350Z,88.00
2022-09-13T21:39:18.817Z,88.21
2022-09-13T21:44:21.623Z,88.31
2022-09-13T21:49:24.510Z,88.49
2022-09-13T21:54:27.228Z,88.98
2022-09-13T21:59:30.010Z,89.38
2022-09-13T22:04:34.464Z,89.69
2022-09-13T22:09:37.280Z,90.36
2022-09-13T22:14:40.175Z,90.69
2022-09-13T22:19:42.969Z,91.05
2022-09-13T22:24:46.677Z,91.31
2022-09-13T22:29:50.697Z,91.99
2022-09-13T22:34:53.862Z,91.80
2022-09-13T22:39:59.555Z,91.90
2022-09-13T22:45:02.767Z,92.09
2022-09-13T22:50:06.242Z,91.93
2022-09-13T22:55:09.592Z,92.03
2022-09-13T23:00:13.542Z,92.25
2022-09-13T23:05:17.034Z,92.46
2022-09-13T23:10:19.871Z,92.58
2022-09-13T23:15:22.644Z,92.94
2022-09-13T23:20:25.496Z,93.41
2022-09-13T23:25:28.777Z,93.76
2022-09-13T23:30:31.496Z,94.05
2022-09-13T23:35:37.007Z,94.31
2022-09-13T23:40:39.705Z,94.10
2022-09-13T23:45:43.621Z,94.08
2022-09-13T23:50:46.665Z,94.33
2022-09-13T23:55:49.358Z,94.52
